createdAt,value
2023-02-26T00:01:49.089Z,2.90
2023-02-26T00:04:16.141Z,2.90
2023-02-26T00:06:52.983Z,2.90
2023-02-26T00:09:24.209Z,3.00
2023-02-26T00:11:51.444Z,2.90
2023-02-26T00:14:18.908Z,2.90
2023-02-26T00:17:05.760Z,2.90
2023-02-26T00:19:32.765Z,3.00
2023-02-26T00:21:59.879Z,3.00
2023-02-26T00:24:27.742Z,3.00
2023-02-26T00:26:55.263Z,3.00
2023-02-26T00:29:22.674Z,3.10
2023-02-26T00:31:50.050Z,3.00
2023-02-26T00:34:23.378Z,3.00
2023-02-26T00:37:21.110Z,2.90
2023-02-26T00:40:22.441Z,3.00
2023-02-26T00:42:49.946Z,3.00
2023-02-26T00:45:23.409Z,3.00
2023-02-26T00:48:04.236Z,3.00
2023-02-26T00:50:32.052Z,3.00
2023-02-26T00:53:28.421Z,3.00
2023-02-26T00:55:55.233Z,3.00
2023-02-26T00:58:21.966Z,3.00
2023-02-26T01:00:48.674Z,3.00
2023-02-26T01:03:15.689Z,3.00
2023-02-26T01:05:42.833Z,3.00
2023-02-26T01:08:37.385Z,3.00
2023-02-26T01:11:04.542Z,2.90
2023-02-26T01:13:31.569Z,3.00
2023-02-26T01:16:10.842Z,3.00
2023-02-26T01:18:55.796Z,3.00
2023-02-26T01:21:34.797Z,2.80
2023-02-26T01:24:07.756Z,2.80
2023-02-26T01:26:34.737Z,2.80
2023-02-26T01:29:01.882Z,2.80
2023-02-26T01:32:21.723Z,2.70
2023-02-26T01:35:07.033Z,2.70
2023-02-26T01:37:57.706Z,2.70
2023-02-26T01:40:36.344Z,2.60
2023-02-26T01:43:12.594Z,2.60
2023-02-26T01:46:45.562Z,2.60
2023-02-26T01:49:17.990Z,2.60
2023-02-26T01:51:53.314Z,2.60
2023-02-26T01:54:34.761Z,2.50
2023-02-26T01:57:15.362Z,2.50
2023-02-26T01:59:48.606Z,2.50
2023-02-26T02:02:29.458Z,2.50
2023-02-26T02:05:08.880Z,2.50
2023-02-26T02:07:35.627Z,2.40
2023-02-26T02:10:02.359Z,2.40
2023-02-26T02:12:50.862Z,2.40
2023-02-26T02:15:50.718Z,2.30
2023-02-26T02:18:35.547Z,2.30
2023-02-26T02:21:41.879Z,2.30
2023-02-26T02:24:36.222Z,2.30
2023-02-26T02:28:00.574Z,2.30
2023-02-26T02:31:17.692Z,2.20
2023-02-26T02:33:56.137Z,2.20
2023-02-26T02:36:36.494Z,2.20
2023-02-26T02:39:28.053Z,2.20
2023-02-26T02:42:33.783Z,2.10
2023-02-26T02:45:22.488Z,2.10
2023-02-26T02:48:03.918Z,2.10
2023-02-26T02:50:39.445Z,2.00
2023-02-26T02:53:18.525Z,2.10
2023-02-26T02:56:18.908Z,2.00
2023-02-26T02:58:57.555Z,2.00
2023-02-26T03:01:28.202Z,2.00
2023-02-26T03:04:11.501Z,2.00
2023-02-26T03:06:39.326Z,2.00
2023-02-26T03:09:08.781Z,1.90
2023-02-26T03:11:39.974Z,2.00
2023-02-26T03:14:10.294Z,2.00
2023-02-26T03:17:14.913Z,1.90
2023-02-26T03:20:11.442Z,1.90
2023-02-26T03:23:01.665Z,1.90
2023-02-26T03:25:55.164Z,1.90
2023-02-26T03:28:39.866Z,1.90
2023-02-26T03:31:15.171Z,1.90
2023-02-26T03:34:23.790Z,1.90
2023-02-26T03:37:14.883Z,1.90
2023-02-26T03:39:48.686Z,1.90
2023-02-26T03:42:42.868Z,1.90
2023-02-26T03:45:19.865Z,1.80
2023-02-26T03:47:55.011Z,1.90
2023-02-26T03:50:50.549Z,1.80
2023-02-26T03:53:25.494Z,1.80
2023-02-26T03:56:28.278Z,1.80
2023-02-26T03:59:02.905Z,1.80
2023-02-26T04:01:43.606Z,1.70
2023-02-26T04:04:38.438Z,1.70
2023-02-26T04:07:05.461Z,1.80
2023-02-26T04:09:32.245Z,1.70
2023-02-26T04:11:59.219Z,1.80
2023-02-26T04:14:26.124Z,1.70
2023-02-26T04:16:53.023Z,1.70
2023-02-26T04:19:19.828Z,1.80
2023-02-26T04:21:46.900Z,1.70
2023-02-26T04:24:13.623Z,1.70
2023-02-26T04:26:40.409Z,1.70
2023-02-26T04:29:07.313Z,1.60
2023-02-26T04:31:34.172Z,1.60
2023-02-26T04:34:01.015Z,1.60
2023-02-26T04:36:33.930Z,1.60
2023-02-26T04:39:01.238Z,1.60
2023-02-26T04:41:28.077Z,1.50
2023-02-26T04:43:54.824Z,1.50
2023-02-26T04:46:21.627Z,1.40
2023-02-26T04:48:48.429Z,1.50
2023-02-26T04:51:18.335Z,1.50
2023-02-26T04:53:45.374Z,1.50
2023-02-26T04:56:15.223Z,1.50
2023-02-26T04:58:44.594Z,1.50
2023-02-26T05:01:13.574Z,1.40
2023-02-26T05:03:40.438Z,1.40
2023-02-26T05:06:08.819Z,1.40
2023-02-26T05:08:35.716Z,1.50
2023-02-26T05:11:09.075Z,1.50
2023-02-26T05:13:35.929Z,1.40
2023-02-26T05:16:02.863Z,1.40
2023-02-26T05:18:32.161Z,1.40
2023-02-26T05:21:00.285Z,1.40
2023-02-26T05:23:33.455Z,1.40
2023-02-26T05:26:00.382Z,1.40
2023-02-26T05:28:33.968Z,1.40
2023-02-26T05:31:00.767Z,1.40
2023-02-26T05:33:27.733Z,1.40
2023-02-26T05:35:57.729Z,1.50
2023-02-26T05:38:24.627Z,1.40
2023-02-26T05:40:55.646Z,1.40
2023-02-26T05:43:22.560Z,1.40
2023-02-26T05:45:51.253Z,1.40
2023-02-26T05:48:18.578Z,1.30
2023-02-26T05:50:45.539Z,1.30
2023-02-26T05:53:12.330Z,1.30
2023-02-26T05:55:39.121Z,1.30
2023-02-26T05:58:05.891Z,1.30
2023-02-26T06:00:32.845Z,1.30
2023-02-26T06:03:03.071Z,1.20
2023-02-26T06:05:30.138Z,1.20
2023-02-26T06:07:57.599Z,1.20
2023-02-26T06:10:24.660Z,1.20
2023-02-26T06:12:51.540Z,1.20
2023-02-26T06:15:18.341Z,1.20
2023-02-26T06:17:45.411Z,1.10
2023-02-26T06:20:13.445Z,1.10
2023-02-26T06:22:40.636Z,1.10
2023-02-26T06:25:08.319Z,1.10
2023-02-26T06:27:35.104Z,1.00
2023-02-26T06:30:02.631Z,1.00
2023-02-26T06:32:30.794Z,1.00
2023-02-26T06:34:57.880Z,1.00
2023-02-26T06:37:25.065Z,1.00
2023-02-26T06:39:51.876Z,1.00
2023-02-26T06:42:20.163Z,0.90
2023-02-26T06:44:47.146Z,0.90
2023-02-26T06:47:14.459Z,0.90
2023-02-26T06:49:41.264Z,0.90
2023-02-26T06:52:10.935Z,0.90
2023-02-26T06:54:37.710Z,0.90
2023-02-26T06:57:04.457Z,0.90
2023-02-26T06:59:34.392Z,0.90
2023-02-26T07:02:02.253Z,0.80
2023-02-26T07:04:29.038Z,0.90
2023-02-26T07:06:57.825Z,0.90
2023-02-26T07:09:24.632Z,0.90
2023-02-26T07:11:53.814Z,0.90
2023-02-26T07:14:20.696Z,0.90
2023-02-26T07:16:50.830Z,0.90
2023-02-26T07:19:18.636Z,1.00
2023-02-26T07:21:45.617Z,1.00
2023-02-26T07:24:12.458Z,1.00
2023-02-26T07:26:39.210Z,1.10
2023-02-26T07:29:06.385Z,1.10
2023-02-26T07:31:33.563Z,1.10
2023-02-26T07:34:02.519Z,1.20
2023-02-26T07:36:29.831Z,1.20
2023-02-26T07:38:56.608Z,1.20
2023-02-26T07:41:23.562Z,1.30
2023-02-26T07:43:50.450Z,1.20
2023-02-26T07:46:19.998Z,1.30
2023-02-26T07:48:46.794Z,1.30
2023-02-26T07:51:13.572Z,1.30
2023-02-26T07:53:40.362Z,1.40
2023-02-26T07:56:07.121Z,1.40
2023-02-26T07:58:33.955Z,1.50
2023-02-26T08:01:00.768Z,1.40
2023-02-26T08:03:27.592Z,1.50
2023-02-26T08:06:00.934Z,1.50
2023-02-26T08:08:28.367Z,1.60
2023-02-26T08:10:55.458Z,1.60
2023-02-26T08:13:22.200Z,1.60
2023-02-26T08:15:49.128Z,1.70
2023-02-26T08:18:16.073Z,1.70
2023-02-26T08:20:46.367Z,1.80
2023-02-26T08:23:13.396Z,1.80
2023-02-26T08:25:40.173Z,1.80
2023-02-26T08:28:07.189Z,1.80
2023-02-26T08:30:37.027Z,1.90
2023-02-26T08:33:04.557Z,1.90
2023-02-26T08:35:31.609Z,1.90
2023-02-26T08:37:58.730Z,2.00
2023-02-26T08:40:30.992Z,2.00
2023-02-26T08:42:59.764Z,2.00
2023-02-26T08:45:27.014Z,2.00
2023-02-26T08:47:57.236Z,2.10
2023-02-26T08:50:26.020Z,2.20
2023-02-26T08:52:53.212Z,2.20
2023-02-26T08:55:20.323Z,2.20
2023-02-26T08:57:50.268Z,2.30
2023-02-26T09:00:18.612Z,2.30
2023-02-26T09:02:46.186Z,2.30
2023-02-26T09:05:14.929Z,2.40
2023-02-26T09:07:51.959Z,2.40
2023-02-26T09:10:18.935Z,2.50
2023-02-26T09:12:46.747Z,2.50
2023-02-26T09:15:14.568Z,2.60
2023-02-26T09:17:44.647Z,2.80
2023-02-26T09:20:16.000Z,3.10
2023-02-26T09:22:42.806Z,3.40
2023-02-26T09:25:11.339Z,3.60
2023-02-26T09:27:38.221Z,3.90
2023-02-26T09:30:06.796Z,4.20
2023-02-26T09:32:35.847Z,4.20
2023-02-26T09:35:06.227Z,4.50
2023-02-26T09:37:33.238Z,4.80
2023-02-26T09:40:00.212Z,4.90
2023-02-26T09:43:00.349Z,4.90
2023-02-26T09:48:31.347Z,5.30
2023-02-26T09:50:59.358Z,5.60
2023-02-26T09:53:35.289Z,5.70
2023-02-26T09:56:21.645Z,5.70
2023-02-26T09:58:53.924Z,5.70
2023-02-26T10:01:30.065Z,5.60
2023-02-26T10:04:33.982Z,5.70
2023-02-26T10:07:23.379Z,5.80
2023-02-26T10:10:40.485Z,5.90
2023-02-26T10:13:29.383Z,5.90
2023-02-26T10:16:05.612Z,5.80
2023-02-26T10:18:41.816Z,5.70
2023-02-26T10:21:14.406Z,5.80
2023-02-26T10:23:54.106Z,6.00
2023-02-26T10:26:34.933Z,6.10
2023-02-26T10:30:03.004Z,6.00
2023-02-26T10:33:10.229Z,6.10
2023-02-26T10:35:52.961Z,6.20
2023-02-26T10:38:25.970Z,6.20
2023-02-26T10:41:01.829Z,6.20
2023-02-26T10:43:42.572Z,6.30
2023-02-26T10:46:12.600Z,6.30
2023-02-26T10:49:01.173Z,6.20
2023-02-26T10:51:39.600Z,6.30
2023-02-26T10:54:34.675Z,6.30
2023-02-26T10:57:01.403Z,6.30
2023-02-26T10:59:28.181Z,6.20
2023-02-26T11:01:56.275Z,6.30
2023-02-26T11:04:27.119Z,6.40
2023-02-26T11:07:05.139Z,6.50
2023-02-26T11:09:38.532Z,6.50
2023-02-26T11:12:11.520Z,6.50
2023-02-26T11:14:50.918Z,6.30
2023-02-26T11:17:29.517Z,6.30
2023-02-26T11:20:16.987Z,6.30
2023-02-26T11:22:58.089Z,6.30
2023-02-26T11:25:31.223Z,6.20
2023-02-26T11:28:20.865Z,6.10
2023-02-26T11:30:54.720Z,6.20
2023-02-26T11:33:34.276Z,6.40
2023-02-26T11:36:05.954Z,6.50
2023-02-26T11:38:33.580Z,6.40
2023-02-26T11:41:02.717Z,6.50
2023-02-26T11:43:45.319Z,6.60
2023-02-26T11:46:13.754Z,6.70
2023-02-26T11:48:49.327Z,6.70
2023-02-26T11:51:25.618Z,6.70
2023-02-26T11:54:01.491Z,6.70
2023-02-26T11:56:42.808Z,6.70
2023-02-26T11:59:23.663Z,6.80
2023-02-26T12:01:52.986Z,6.80
2023-02-26T12:04:27.655Z,6.90
2023-02-26T12:06:56.064Z,6.80
2023-02-26T12:09:26.017Z,6.80
2023-02-26T12:12:13.893Z,6.80
2023-02-26T12:15:12.914Z,6.90
2023-02-26T12:18:39.806Z,7.00
2023-02-26T12:21:26.416Z,7.00
2023-02-26T12:24:38.806Z,6.90
2023-02-26T12:27:27.127Z,7.00
2023-02-26T12:30:20.987Z,7.00
2023-02-26T12:33:14.792Z,7.00
2023-02-26T12:36:50.054Z,7.10
2023-02-26T12:39:37.090Z,7.10
2023-02-26T12:42:22.747Z,7.20
2023-02-26T12:45:53.191Z,7.20
2023-02-26T12:48:41.540Z,7.20
2023-02-26T12:51:51.392Z,7.20
2023-02-26T12:54:40.550Z,7.20
2023-02-26T12:57:45.166Z,6.90
2023-02-26T13:00:36.672Z,7.00
2023-02-26T13:03:33.085Z,7.00
2023-02-26T13:06:22.123Z,7.00
2023-02-26T13:09:32.264Z,7.10
2023-02-26T13:12:49.862Z,7.20
2023-02-26T13:16:10.801Z,7.40
2023-02-26T13:19:05.015Z,7.60
2023-02-26T13:21:44.554Z,7.50
2023-02-26T13:24:41.742Z,7.60
2023-02-26T13:27:12.013Z,7.70
2023-02-26T13:29:47.940Z,7.70
2023-02-26T13:32:28.165Z,7.50
2023-02-26T13:35:06.060Z,7.50
2023-02-26T13:37:45.485Z,7.50
2023-02-26T13:40:37.420Z,7.50
2023-02-26T13:43:34.969Z,7.70
2023-02-26T13:46:33.515Z,7.60
2023-02-26T13:49:32.141Z,7.60
2023-02-26T13:51:58.950Z,7.70
2023-02-26T13:54:43.079Z,7.40
2023-02-26T13:57:37.150Z,7.40
2023-02-26T14:00:33.023Z,7.40
2023-02-26T14:03:18.045Z,7.50
2023-02-26T14:05:47.446Z,7.60
2023-02-26T14:08:17.284Z,7.60
2023-02-26T14:11:02.776Z,7.70
2023-02-26T14:13:39.920Z,7.70
2023-02-26T14:16:29.369Z,7.70
2023-02-26T14:19:28.266Z,7.60
2023-02-26T14:22:25.784Z,7.60
2023-02-26T14:24:58.179Z,7.70
2023-02-26T14:27:33.958Z,8.00
2023-02-26T14:30:09.711Z,8.10
2023-02-26T14:33:08.358Z,7.90
2023-02-26T14:35:49.116Z,7.80
2023-02-26T14:38:28.538Z,7.80
2023-02-26T14:41:08.305Z,7.90
2023-02-26T14:43:42.654Z,7.70
2023-02-26T14:46:13.221Z,7.70
2023-02-26T14:48:47.461Z,7.80
2023-02-26T14:51:47.462Z,7.90
2023-02-26T14:54:52.733Z,8.00
2023-02-26T14:57:48.686Z,7.90
2023-02-26T15:00:49.423Z,7.90
2023-02-26T15:03:43.437Z,7.70
2023-02-26T15:07:08.353Z,7.60
2023-02-26T15:09:56.238Z,7.60
2023-02-26T15:12:45.297Z,7.80
2023-02-26T15:15:41.778Z,7.90
2023-02-26T15:18:37.858Z,7.80
2023-02-26T15:21:13.492Z,7.70
2023-02-26T15:23:47.717Z,7.60
2023-02-26T15:26:29.724Z,7.70
2023-02-26T15:28:59.063Z,7.90
2023-02-26T15:31:41.415Z,7.70
2023-02-26T15:34:24.577Z,7.70
2023-02-26T15:36:54.140Z,7.60
2023-02-26T15:39:24.490Z,7.40
2023-02-26T15:41:54.750Z,7.60
2023-02-26T15:44:33.353Z,7.50
2023-02-26T15:47:03.373Z,7.40
2023-02-26T15:49:34.322Z,7.30
2023-02-26T15:52:04.288Z,7.30
2023-02-26T15:55:00.638Z,7.30
2023-02-26T15:57:29.857Z,7.40
2023-02-26T16:00:16.889Z,7.40
2023-02-26T16:02:45.580Z,7.40
2023-02-26T16:05:16.429Z,7.40
2023-02-26T16:07:43.289Z,7.40
2023-02-26T16:10:42.886Z,7.40
2023-02-26T16:13:17.570Z,7.40
2023-02-26T16:15:44.843Z,7.10
2023-02-26T16:18:20.901Z,7.00
2023-02-26T16:20:53.147Z,6.90
2023-02-26T16:23:43.766Z,6.80
2023-02-26T16:26:20.847Z,6.60
2023-02-26T16:29:00.587Z,6.70
2023-02-26T16:31:28.246Z,6.60
2023-02-26T16:34:03.724Z,6.50
2023-02-26T16:36:37.846Z,6.50
2023-02-26T16:39:22.319Z,6.60
2023-02-26T16:42:16.142Z,6.40
2023-02-26T16:44:52.595Z,6.20
2023-02-26T16:47:20.442Z,6.30
2023-02-26T16:49:48.328Z,6.30
2023-02-26T16:52:26.183Z,6.20
2023-02-26T16:55:04.764Z,6.20
2023-02-26T16:57:44.763Z,6.10
2023-02-26T17:00:32.777Z,6.10
2023-02-26T17:03:21.279Z,6.00
2023-02-26T17:06:00.702Z,6.00
2023-02-26T17:08:49.370Z,5.90
2023-02-26T17:11:38.506Z,5.90
2023-02-26T17:14:22.338Z,5.90
2023-02-26T17:16:50.816Z,5.80
2023-02-26T17:19:19.351Z,5.70
2023-02-26T17:21:56.333Z,5.70
2023-02-26T17:24:37.361Z,5.70
2023-02-26T17:27:05.628Z,5.50
2023-02-26T17:29:40.545Z,5.50
2023-02-26T17:32:20.423Z,5.50
2023-02-26T17:34:47.601Z,5.50
2023-02-26T17:37:15.477Z,5.40
2023-02-26T17:39:43.974Z,5.40
2023-02-26T17:42:21.200Z,5.40
2023-02-26T17:44:48.647Z,5.30
2023-02-26T17:47:21.855Z,5.30
2023-02-26T17:49:49.084Z,5.20
2023-02-26T17:52:16.517Z,5.20
2023-02-26T17:54:43.892Z,5.10
2023-02-26T17:57:20.073Z,5.10
2023-02-26T17:59:48.793Z,5.00
2023-02-26T18:02:33.791Z,5.00
2023-02-26T18:05:00.636Z,5.00
2023-02-26T18:07:30.800Z,5.00
2023-02-26T18:09:57.591Z,4.90
2023-02-26T18:12:24.575Z,4.90
2023-02-26T18:14:52.081Z,4.80
2023-02-26T18:17:32.289Z,4.80
2023-02-26T18:19:59.276Z,4.80
2023-02-26T18:22:27.574Z,4.90
2023-02-26T18:24:55.568Z,4.90
2023-02-26T18:27:26.063Z,4.90
2023-02-26T18:29:58.350Z,4.90
2023-02-26T18:32:27.718Z,4.80
2023-02-26T18:34:54.849Z,4.80
2023-02-26T18:37:26.024Z,4.80
2023-02-26T18:39:53.445Z,4.80
2023-02-26T18:42:27.262Z,4.70
2023-02-26T18:44:57.153Z,4.70
2023-02-26T18:47:24.022Z,4.80
2023-02-26T18:49:51.988Z,4.80
2023-02-26T18:52:19.174Z,4.70
2023-02-26T18:54:45.963Z,4.70
2023-02-26T18:57:12.941Z,4.70
2023-02-26T18:59:40.213Z,4.60
2023-02-26T19:02:11.783Z,4.50
2023-02-26T19:04:42.428Z,4.50
2023-02-26T19:07:09.538Z,4.50
2023-02-26T19:09:36.439Z,4.60
2023-02-26T19:12:10.961Z,4.60
2023-02-26T19:14:41.870Z,4.50
2023-02-26T19:17:14.590Z,4.50
2023-02-26T19:19:44.937Z,4.50
2023-02-26T19:22:17.503Z,4.50
2023-02-26T19:24:44.536Z,4.40
2023-02-26T19:27:14.172Z,4.50
2023-02-26T19:29:43.042Z,4.40
2023-02-26T19:32:10.218Z,4.50
2023-02-26T19:34:37.166Z,4.50
2023-02-26T19:37:05.048Z,4.50
2023-02-26T19:39:32.179Z,4.50
2023-02-26T19:42:03.702Z,4.60
2023-02-26T19:44:33.722Z,4.60
2023-02-26T19:47:00.644Z,4.60
2023-02-26T19:49:30.558Z,4.60
2023-02-26T19:52:00.350Z,4.60
2023-02-26T19:54:27.213Z,4.60
2023-02-26T19:56:56.547Z,4.70
2023-02-26T19:59:31.002Z,4.70
2023-02-26T20:01:57.903Z,4.60
2023-02-26T20:04:24.970Z,4.70
2023-02-26T20:06:51.976Z,4.80
2023-02-26T20:09:28.059Z,4.70
2023-02-26T20:12:01.169Z,4.60
2023-02-26T20:14:28.205Z,4.50
2023-02-26T20:16:58.093Z,4.50
2023-02-26T20:19:25.199Z,4.40
2023-02-26T20:21:58.325Z,4.40
2023-02-26T20:24:26.364Z,4.40
2023-02-26T20:26:53.768Z,4.40
2023-02-26T20:29:24.130Z,4.30
2023-02-26T20:31:55.474Z,4.30
2023-02-26T20:34:23.790Z,4.20
2023-02-26T20:36:50.902Z,4.10
2023-02-26T20:39:19.428Z,4.10
2023-02-26T20:41:46.310Z,4.10
2023-02-26T20:44:13.145Z,4.00
2023-02-26T20:46:40.170Z,4.00
2023-02-26T20:49:11.599Z,4.00
2023-02-26T20:51:44.457Z,4.00
2023-02-26T20:54:15.053Z,4.00
2023-02-26T20:56:42.097Z,4.00
2023-02-26T20:59:09.633Z,4.00
2023-02-26T21:01:36.570Z,4.00
2023-02-26T21:04:09.393Z,4.00
2023-02-26T21:06:37.358Z,4.00
2023-02-26T21:09:06.100Z,4.00
2023-02-26T21:11:37.138Z,4.00
2023-02-26T21:14:07.481Z,4.10
2023-02-26T21:16:34.788Z,4.10
2023-02-26T21:19:02.596Z,4.10
2023-02-26T21:21:31.075Z,4.10
2023-02-26T21:23:58.114Z,4.00
2023-02-26T21:26:25.836Z,4.10
2023-02-26T21:28:52.674Z,4.10
2023-02-26T21:31:21.977Z,4.10
2023-02-26T21:33:49.287Z,4.00
2023-02-26T21:36:16.835Z,4.00
2023-02-26T21:38:43.714Z,4.00
2023-02-26T21:41:11.242Z,4.00
2023-02-26T21:43:38.283Z,4.00
2023-02-26T21:46:05.619Z,4.00
2023-02-26T21:48:32.899Z,4.00
2023-02-26T21:50:59.771Z,4.10
2023-02-26T21:53:27.871Z,4.00
2023-02-26T21:56:04.155Z,4.00
2023-02-26T21:58:37.071Z,4.00
2023-02-26T22:01:04.707Z,4.00
2023-02-26T22:03:34.564Z,4.00
2023-02-26T22:06:03.948Z,3.90
2023-02-26T22:08:32.197Z,3.90
2023-02-26T22:11:01.124Z,3.90
2023-02-26T22:13:27.886Z,3.90
2023-02-26T22:16:00.633Z,3.90
2023-02-26T22:18:27.474Z,3.90
2023-02-26T22:20:54.263Z,3.90
2023-02-26T22:23:21.059Z,3.80
2023-02-26T22:25:47.784Z,3.80
2023-02-26T22:28:17.150Z,3.80
2023-02-26T22:30:44.136Z,3.80
2023-02-26T22:33:13.427Z,3.80
2023-02-26T22:35:41.038Z,3.70
2023-02-26T22:38:07.736Z,3.70
2023-02-26T22:40:34.540Z,3.70
2023-02-26T22:43:01.339Z,3.70
2023-02-26T22:45:31.429Z,3.70
2023-02-26T22:47:58.577Z,3.60
2023-02-26T22:50:28.455Z,3.50
2023-02-26T22:52:58.537Z,3.50
2023-02-26T22:55:28.455Z,3.50
2023-02-26T22:57:55.348Z,3.60
2023-02-26T23:00:22.708Z,3.60
2023-02-26T23:02:50.921Z,3.60
2023-02-26T23:05:21.934Z,3.60
2023-02-26T23:07:49.256Z,3.50
2023-02-26T23:10:26.799Z,3.50
2023-02-26T23:12:53.617Z,3.50
2023-02-26T23:15:26.814Z,3.50
2023-02-26T23:17:53.589Z,3.50
2023-02-26T23:20:20.466Z,3.40
2023-02-26T23:22:47.363Z,3.50
2023-02-26T23:25:17.400Z,3.40
2023-02-26T23:27:44.523Z,3.40
2023-02-26T23:30:12.441Z,3.40
2023-02-26T23:32:39.365Z,3.40
2023-02-26T23:35:06.973Z,3.40
2023-02-26T23:37:33.758Z,3.40
2023-02-26T23:40:00.581Z,3.40
2023-02-26T23:42:27.385Z,3.40
2023-02-26T23:44:54.138Z,3.40
2023-02-26T23:47:24.033Z,3.40
2023-02-26T23:49:50.928Z,3.40
2023-02-26T23:52:17.913Z,3.40
2023-02-26T23:54:47.691Z,3.40
2023-02-26T23:57:14.544Z,3.40
2023-02-26T23:59:41.327Z,3.40
